Milo, Kentucky
Current Conditions -  °F | °C
As of 5:15 PM on Thursday 18 Dec 2014 (Local Time) from KSJS Reporting Station
Overcast Overcast  
Wind Chill: 32°   Ceiling: 7000
Heat Index: 32°   Visibility: 10mi
Dew Point: 26°   Wind: 0mph
Humidity: 76%   Direction: NA
Pressure: 30.17"   Gusts: NA
Location:  37.8776°N, 82.5976°W
Report Text: KSJS 182215Z AUTO 00000KT 10SM OVC070 00/M03 A3017 RMK AO2 T00021035
Loading
Personal Weather Stations






























Interactive Weather Map New forecast layout! Learn more

10-Day Weather Forecast

Advertisements
Track Severe Weather on mobile